Time;durP1;ratioP1;P1;durP2;ratioP2;P2;SDS_P1;SDS_P2;PMS_P1;PMS_P2;Temp;Humidity;BMP_temperature;BMP_pressure;BME280_temperature;BME280_humidity;BME280_pressure;Samples;Min_cycle;Max_cycle;Signal;HPM_P1;HPM_P2
2022/05/05 00:00:15;;;;;;;31.27;18.92;;;10.90;99.90;;;;;;5015052;28;20029;-56
2022/05/05 00:02:41;;;;;;;37.13;19.00;;;10.90;99.90;;;;;;5015076;28;20468;-56
2022/05/05 00:05:08;;;;;;;52.97;23.70;;;10.90;99.90;;;;;;5015142;28;20030;-56
2022/05/05 00:07:34;;;;;;;62.78;28.13;;;10.90;99.90;;;;;;5014826;28;20030;-56
2022/05/05 00:14:23;;;;;;;56.63;28.25;;;10.90;99.90;;;;;;5014863;28;20391;-56
2022/05/05 00:15:32;;;;;;;47.25;24.77;;;10.80;99.90;;;;;;5014967;28;20065;-56
2022/05/05 00:17:58;;;;;;;48.15;23.33;;;10.70;99.90;;;;;;5015050;28;20048;-56
2022/05/05 00:20:24;;;;;;;53.63;26.05;;;10.70;99.90;;;;;;5014795;28;20026;-56
2022/05/05 00:22:50;;;;;;;49.90;25.40;;;10.60;99.90;;;;;;5014716;28;20108;-56
2022/05/05 00:25:16;;;;;;;46.13;23.35;;;10.50;99.90;;;;;;5014829;28;20057;-56
2022/05/05 00:27:42;;;;;;;48.63;23.48;;;10.40;99.90;;;;;;5014734;28;20026;-56
2022/05/05 00:30:09;;;;;;;49.63;25.60;;;10.30;99.90;;;;;;5014797;28;20073;-56
2022/05/05 00:32:34;;;;;;;68.15;30.65;;;10.20;99.90;;;;;;5014918;28;20030;-56
2022/05/05 00:35:00;;;;;;;72.88;32.00;;;10.10;99.90;;;;;;5014593;28;20099;-56
2022/05/05 00:37:26;;;;;;;83.10;35.63;;;10.20;99.90;;;;;;5014846;28;20033;-56
2022/05/05 00:39:52;;;;;;;73.55;34.22;;;10.10;99.90;;;;;;5014686;28;20037;-56
2022/05/05 00:42:18;;;;;;;69.50;30.88;;;10.10;99.90;;;;;;5014490;28;20018;-56
2022/05/05 00:44:44;;;;;;;60.95;29.20;;;10.10;99.90;;;;;;5014690;28;20018;-56
2022/05/05 00:47:15;;;;;;;54.42;26.58;;;10.10;99.90;;;;;;5014815;28;20360;-56
2022/05/05 00:49:42;;;;;;;58.85;29.42;;;10.10;99.90;;;;;;5014491;28;20041;-56
2022/05/05 00:52:08;;;;;;;67.72;31.55;;;10.10;99.90;;;;;;5014596;28;20467;-56
2022/05/05 00:54:34;;;;;;;59.60;28.20;;;10.10;99.90;;;;;;5014461;28;20037;-56
2022/05/05 00:57:00;;;;;;;51.65;26.50;;;10.10;99.90;;;;;;5014438;28;20034;-56
2022/05/05 00:59:26;;;;;;;44.30;23.10;;;10.10;99.90;;;;;;5014650;28;20057;-56
2022/05/05 01:01:52;;;;;;;40.38;22.00;;;10.10;99.90;;;;;;5013099;28;20034;-56
2022/05/05 01:04:19;;;;;;;81.45;37.22;;;10.20;99.90;;;;;;5014304;28;20030;-56
2022/05/05 01:06:45;;;;;;;62.72;30.92;;;10.10;99.90;;;;;;5014524;28;20026;-56
2022/05/05 01:09:11;;;;;;;47.80;25.05;;;10.10;99.90;;;;;;5014273;28;20041;-56
2022/05/05 01:11:37;;;;;;;47.70;24.73;;;10.10;99.90;;;;;;5014567;28;20038;-56
2022/05/05 01:14:03;;;;;;;47.50;24.58;;;10.00;99.90;;;;;;5014421;28;20037;-56
2022/05/05 01:16:31;;;;;;;47.70;25.17;;;9.80;99.90;;;;;;5014487;28;20080;-56
2022/05/05 01:18:57;;;;;;;50.08;25.67;;;9.80;99.90;;;;;;5014345;28;20022;-56
2022/05/05 01:21:23;;;;;;;44.78;25.23;;;9.70;99.90;;;;;;5014378;28;20399;-56
2022/05/05 01:23:49;;;;;;;43.67;23.67;;;9.70;99.90;;;;;;5016847;28;20407;-56
2022/05/05 01:29:01;;;;;;;50.05;24.58;;;9.60;99.90;;;;;;5018009;28;20033;-56
2022/05/05 01:31:27;;;;;;;34.03;20.50;;;9.50;99.90;;;;;;5017900;28;20038;-56
2022/05/05 01:33:53;;;;;;;39.50;22.15;;;9.50;99.90;;;;;;5017956;28;20026;-56
2022/05/05 01:36:19;;;;;;;36.90;20.63;;;9.50;99.90;;;;;;5017841;28;20033;-56
2022/05/05 01:38:45;;;;;;;38.40;21.02;;;9.50;99.90;;;;;;5017520;28;20034;-56
2022/05/05 01:41:13;;;;;;;43.58;23.52;;;9.60;99.90;;;;;;5017840;28;20026;-56
2022/05/05 01:43:40;;;;;;;37.70;22.02;;;9.60;99.90;;;;;;5017600;28;20034;-56
2022/05/05 01:46:07;;;;;;;35.00;20.70;;;9.60;99.90;;;;;;5017554;28;20026;-56
2022/05/05 01:48:33;;;;;;;35.00;20.42;;;9.50;99.90;;;;;;5017595;28;20026;-56
2022/05/05 01:51:00;;;;;;;34.67;20.98;;;9.30;99.90;;;;;;5017528;28;20030;-56
2022/05/05 01:53:27;;;;;;;40.70;20.70;;;9.30;99.90;;;;;;5017525;28;20391;-56
2022/05/05 01:55:53;;;;;;;35.47;20.23;;;9.20;99.90;;;;;;5017501;28;20034;-56
2022/05/05 01:58:19;;;;;;;39.95;21.65;;;9.30;99.90;;;;;;5017344;28;20034;-56
2022/05/05 02:00:45;;;;;;;36.25;20.05;;;9.20;99.90;;;;;;5016083;28;20030;-56
2022/05/05 02:03:14;;;;;;;33.88;19.67;;;9.10;99.90;;;;;;5017289;28;20026;-56
2022/05/05 02:05:44;;;;;;;25.15;17.42;;;9.20;99.90;;;;;;5017581;28;20050;-56
2022/05/05 02:08:11;;;;;;;31.88;20.13;;;9.20;99.90;;;;;;5017108;28;20022;-56
2022/05/05 02:10:38;;;;;;;26.83;18.40;;;9.20;99.90;;;;;;5017176;28;20539;-56
2022/05/05 02:13:06;;;;;;;25.20;17.10;;;9.20;99.90;;;;;;5017074;28;20030;-56
2022/05/05 02:15:34;;;;;;;28.05;15.75;;;9.20;99.90;;;;;;5016979;28;20094;-56
2022/05/05 02:18:11;;;;;;;25.95;16.23;;;9.10;99.90;;;;;;5017138;28;20030;-56
2022/05/05 02:20:40;;;;;;;22.63;15.65;;;9.00;99.90;;;;;;5016993;28;20030;-56
2022/05/05 02:23:07;;;;;;;22.88;14.60;;;9.00;99.90;;;;;;5016875;28;20037;-56
2022/05/05 02:25:34;;;;;;;20.92;15.13;;;9.00;99.90;;;;;;5016917;28;20049;-56
2022/05/05 02:28:00;;;;;;;25.80;15.07;;;9.00;99.90;;;;;;5016879;28;20030;-56
2022/05/05 02:30:27;;;;;;;20.70;14.30;;;9.10;99.90;;;;;;5016656;28;20042;-56
2022/05/05 02:32:54;;;;;;;24.67;14.55;;;9.10;99.90;;;;;;5016948;28;20029;-56
2022/05/05 02:35:20;;;;;;;25.15;14.57;;;9.30;99.90;;;;;;5016036;28;20103;-56
2022/05/05 02:40:31;;;;;;;22.92;14.85;;;9.20;99.90;;;;;;5016758;28;20053;-56
2022/05/05 02:42:58;;;;;;;24.25;15.43;;;9.10;99.90;;;;;;5016473;28;20492;-56
2022/05/05 02:45:25;;;;;;;25.70;15.95;;;9.10;99.90;;;;;;5016700;28;20029;-56
2022/05/05 02:47:51;;;;;;;28.50;14.95;;;9.10;99.90;;;;;;5016814;28;20102;-56
2022/05/05 02:50:18;;;;;;;22.55;15.73;;;9.10;99.90;;;;;;5016433;28;20030;-56
2022/05/05 02:52:44;;;;;;;22.55;14.38;;;9.00;99.90;;;;;;5016545;28;20030;-56
2022/05/05 02:55:10;;;;;;;22.80;14.20;;;9.00;99.90;;;;;;5016496;28;20028;-56
2022/05/05 02:57:36;;;;;;;26.10;16.30;;;9.00;99.90;;;;;;5016254;28;20034;-56
2022/05/05 03:00:07;;;;;;;27.25;15.90;;;8.90;99.90;;;;;;5016196;28;20490;-56
2022/05/05 03:02:33;;;;;;;;;;;8.90;99.90;;;;;;5016651;28;20267;-56
2022/05/05 03:04:59;;;;;;;22.83;15.50;;;8.80;99.90;;;;;;5015998;28;19909;-56
2022/05/05 03:07:25;;;;;;;26.05;14.85;;;8.80;99.90;;;;;;5016288;28;20557;-56
2022/05/05 03:09:51;;;;;;;26.55;16.60;;;8.80;99.90;;;;;;5016008;28;20033;-56
2022/05/05 03:12:17;;;;;;;19.85;14.48;;;8.70;99.90;;;;;;5015953;28;20515;-56
2022/05/05 03:14:46;;;;;;;20.23;14.00;;;8.70;99.90;;;;;;5015994;28;20496;-56
2022/05/05 03:17:12;;;;;;;18.23;13.43;;;8.70;99.90;;;;;;5015928;28;20026;-56
2022/05/05 03:19:39;;;;;;;17.70;13.10;;;8.70;99.90;;;;;;5015770;28;20022;-56
2022/05/05 03:22:05;;;;;;;19.65;12.70;;;8.70;99.90;;;;;;5016026;28;20038;-56
2022/05/05 03:24:31;;;;;;;21.40;13.80;;;8.60;99.90;;;;;;5015798;28;20480;-56
2022/05/05 03:26:57;;;;;;;21.90;13.85;;;8.70;99.90;;;;;;5015792;28;20440;-56
2022/05/05 03:29:22;;;;;;;25.25;14.30;;;8.70;99.90;;;;;;5015620;28;20034;-56
2022/05/05 03:31:48;;;;;;;20.25;13.23;;;8.70;99.90;;;;;;5015864;28;20026;-56
2022/05/05 03:34:14;;;;;;;21.48;13.88;;;8.70;99.90;;;;;;5015533;28;20080;-56
2022/05/05 03:36:40;;;;;;;33.63;15.75;;;8.70;99.90;;;;;;5015727;28;20555;-56
2022/05/05 03:39:06;;;;;;;19.95;13.77;;;8.70;99.90;;;;;;5015278;28;20050;-56
2022/05/05 03:41:32;;;;;;;20.75;13.20;;;8.60;99.90;;;;;;5015394;28;20034;-56
2022/05/05 03:43:58;;;;;;;24.98;15.93;;;8.50;99.90;;;;;;5015462;28;20096;-56
2022/05/05 03:46:24;;;;;;;27.05;15.68;;;8.60;99.90;;;;;;5014490;28;20033;-56
2022/05/05 03:48:52;;;;;;;23.27;14.93;;;8.60;99.90;;;;;;5015199;28;20030;-56
2022/05/05 03:51:18;;;;;;;26.42;16.40;;;8.60;99.90;;;;;;5015241;28;20030;-56
2022/05/05 03:53:44;;;;;;;37.80;17.20;;;8.70;99.90;;;;;;5015228;28;20033;-56
2022/05/05 03:56:10;;;;;;;42.38;18.27;;;8.70;99.90;;;;;;5015265;28;20026;-56
2022/05/05 03:58:36;;;;;;;31.92;16.98;;;8.70;99.90;;;;;;5015225;28;20049;-56
2022/05/05 04:01:02;;;;;;;33.05;16.92;;;8.70;99.90;;;;;;5015046;28;20045;-56
2022/05/05 04:03:31;;;;;;;30.80;16.35;;;8.70;99.90;;;;;;5014891;28;20033;-56
2022/05/05 04:06:02;;;;;;;33.33;18.27;;;8.70;99.90;;;;;;5015228;28;20029;-56
2022/05/05 04:08:30;;;;;;;43.63;17.88;;;8.80;99.90;;;;;;5014776;28;20397;-56
2022/05/05 04:10:56;;;;;;;29.92;17.25;;;8.80;99.90;;;;;;5015087;28;20484;-56
2022/05/05 04:13:22;;;;;;;31.17;17.15;;;8.80;99.90;;;;;;5014923;28;20213;-56
2022/05/05 04:15:48;;;;;;;29.33;17.15;;;8.80;99.90;;;;;;5014682;28;20030;-56
2022/05/05 04:18:15;;;;;;;29.10;17.27;;;8.90;99.90;;;;;;5014781;28;20034;-56
2022/05/05 04:20:44;;;;;;;23.88;16.42;;;9.00;99.90;;;;;;5015014;28;20472;-56
2022/05/05 04:23:10;;;;;;;27.23;17.00;;;9.10;99.90;;;;;;5014663;28;20448;-56
2022/05/05 04:25:41;;;;;;;47.55;17.95;;;9.10;99.90;;;;;;5014833;28;20566;-56
2022/05/05 04:28:12;;;;;;;43.28;17.30;;;9.20;99.90;;;;;;5014713;28;20114;-56
2022/05/05 04:30:39;;;;;;;30.20;15.07;;;9.30;99.90;;;;;;5014650;28;20067;-56
2022/05/05 04:33:08;;;;;;;27.75;15.25;;;9.40;99.90;;;;;;5014993;28;20033;-56
2022/05/05 04:35:36;;;;;;;19.17;13.05;;;9.50;99.90;;;;;;5014426;28;20042;-56
2022/05/05 04:38:02;;;;;;;28.75;16.55;;;9.60;99.90;;;;;;5014584;28;20041;-56
2022/05/05 04:40:28;;;;;;;25.45;15.02;;;9.80;99.90;;;;;;5014732;28;20041;-56
2022/05/05 04:42:54;;;;;;;30.02;14.65;;;9.80;99.90;;;;;;5014379;28;20042;-56
2022/05/05 04:45:20;;;;;;;26.02;14.43;;;10.00;99.90;;;;;;5014701;28;20052;-57
2022/05/05 04:47:46;;;;;;;23.63;13.57;;;10.10;99.90;;;;;;5014665;28;20143;-56
2022/05/05 04:50:12;;;;;;;32.30;15.05;;;10.20;99.90;;;;;;5014468;28;20567;-56
2022/05/05 04:52:38;;;;;;;21.38;13.07;;;10.30;99.90;;;;;;5014602;28;20046;-56
2022/05/05 04:55:04;;;;;;;25.52;13.52;;;10.40;99.90;;;;;;5014606;28;20034;-56
2022/05/05 04:57:30;;;;;;;28.88;14.43;;;10.50;99.90;;;;;;5014992;28;20153;-56
2022/05/05 04:59:56;;;;;;;25.20;14.23;;;10.70;99.90;;;;;;5018604;28;20149;-56
2022/05/05 05:02:22;;;;;;;34.28;14.55;;;10.80;99.90;;;;;;5018081;28;20045;-56
2022/05/05 05:04:48;;;;;;;45.67;16.98;;;10.90;99.90;;;;;;5018006;28;20411;-56
2022/05/05 05:07:14;;;;;;;37.38;17.20;;;11.00;99.90;;;;;;5018242;28;20022;-56
2022/05/05 05:09:40;;;;;;;29.08;15.15;;;11.10;99.90;;;;;;5018363;28;20032;-56
2022/05/05 05:12:06;;;;;;;31.40;17.20;;;11.10;99.90;;;;;;5017931;28;20424;-56
2022/05/05 05:14:32;;;;;;;29.33;16.88;;;11.10;99.90;;;;;;5010493;28;20081;-56
2022/05/05 05:16:58;;;;;;;35.17;15.82;;;11.20;99.90;;;;;;5008874;28;20046;-56
2022/05/05 05:19:27;;;;;;;32.95;15.57;;;11.30;99.90;;;;;;5010531;28;20041;-56
2022/05/05 05:21:53;;;;;;;37.17;17.38;;;11.40;99.90;;;;;;5005662;28;20034;-56
2022/05/05 05:24:19;;;;;;;29.58;14.57;;;11.60;99.90;;;;;;5009849;28;20035;-56
2022/05/05 05:26:45;;;;;;;34.78;15.45;;;11.70;99.90;;;;;;5008416;28;20029;-56
2022/05/05 05:29:11;;;;;;;39.75;16.10;;;11.90;99.90;;;;;;5010903;28;20053;-56
2022/05/05 05:31:38;;;;;;;30.60;14.25;;;12.10;99.90;;;;;;5017195;28;20172;-56
2022/05/05 05:34:04;;;;;;;37.63;14.65;;;12.20;99.90;;;;;;5003007;28;20138;-56
2022/05/05 05:36:30;;;;;;;43.08;15.80;;;12.30;99.90;;;;;;5007862;28;20150;-56
2022/05/05 05:38:56;;;;;;;34.40;14.05;;;12.40;99.90;;;;;;5004251;28;20065;-56
2022/05/05 05:41:22;;;;;;;35.55;15.13;;;12.60;99.90;;;;;;5012610;28;20439;-56
2022/05/05 05:43:48;;;;;;;31.08;15.20;;;12.70;99.90;;;;;;5013404;28;20045;-56
2022/05/05 05:46:17;;;;;;;31.60;14.73;;;12.90;99.90;;;;;;5002599;28;20357;-56
2022/05/05 05:48:43;;;;;;;41.65;16.08;;;13.00;99.90;;;;;;5012264;28;20054;-57
2022/05/05 05:51:09;;;;;;;26.75;15.10;;;13.30;99.90;;;;;;5008936;28;20060;-59
2022/05/05 05:53:35;;;;;;;38.28;15.63;;;13.40;99.90;;;;;;5017063;28;20022;-58
2022/05/05 05:56:01;;;;;;;37.80;16.58;;;13.60;99.90;;;;;;5017187;28;20041;-58
2022/05/05 05:58:27;;;;;;;37.08;17.05;;;13.90;99.90;;;;;;5006473;28;20146;-58
2022/05/05 06:00:53;;;;;;;43.33;17.58;;;14.00;99.90;;;;;;4997541;28;20037;-58
2022/05/05 06:06:04;;;;;;;49.28;17.42;;;14.30;99.90;;;;;;5014402;28;20431;-58
2022/05/05 06:08:31;;;;;;;33.45;17.15;;;14.60;99.90;;;;;;5015186;28;20067;-58
2022/05/05 06:10:58;;;;;;;41.95;18.38;;;14.70;99.90;;;;;;5016335;28;20061;-57
2022/05/05 06:13:24;;;;;;;28.13;16.00;;;14.90;99.90;;;;;;5006556;28;20468;-59
2022/05/05 06:15:49;;;;;;;29.80;15.35;;;15.00;99.90;;;;;;5006756;28;20035;-59
2022/05/05 06:18:15;;;;;;;23.83;15.18;;;15.20;99.90;;;;;;5001013;28;20030;-56
2022/05/05 06:20:41;;;;;;;31.05;16.52;;;15.40;99.90;;;;;;5001991;28;20057;-57
2022/05/05 06:23:07;;;;;;;32.75;17.55;;;15.60;99.90;;;;;;5006751;28;20122;-56
2022/05/05 06:25:33;;;;;;;35.53;16.02;;;15.80;99.90;;;;;;5010205;28;20052;-56
2022/05/05 06:27:59;;;;;;;24.83;15.13;;;16.00;99.90;;;;;;5008532;28;20105;-57
2022/05/05 06:30:25;;;;;;;36.05;17.08;;;16.20;99.90;;;;;;5015866;28;20042;-57
2022/05/05 06:32:51;;;;;;;44.25;19.48;;;16.40;99.90;;;;;;5016084;28;20376;-57
2022/05/05 06:35:17;;;;;;;25.55;16.15;;;16.70;99.90;;;;;;5016362;28;20022;-56
2022/05/05 06:37:43;;;;;;;36.30;18.95;;;16.80;99.90;;;;;;5016206;28;20030;-56
2022/05/05 06:40:09;;;;;;;37.15;17.63;;;17.00;99.90;;;;;;5016377;28;20037;-56
2022/05/05 06:42:35;;;;;;;42.78;18.17;;;17.20;99.90;;;;;;5013394;28;20464;-57
2022/05/05 06:45:03;;;;;;;29.73;15.30;;;17.50;99.90;;;;;;5015171;28;20029;-57
2022/05/05 06:47:29;;;;;;;30.38;17.58;;;17.60;99.90;;;;;;5006782;28;20037;-56
2022/05/05 06:49:55;;;;;;;29.52;14.90;;;17.90;99.90;;;;;;5015700;28;20025;-56
2022/05/05 06:52:21;;;;;;;37.05;15.48;;;18.10;99.50;;;;;;5016015;28;20034;-56
2022/05/05 06:54:46;;;;;;;33.95;14.68;;;18.30;98.30;;;;;;5012326;28;20030;-56
2022/05/05 06:57:12;;;;;;;28.98;14.40;;;18.40;97.70;;;;;;5008963;28;20040;-57
2022/05/05 06:59:38;;;;;;;34.75;16.13;;;18.60;96.90;;;;;;5016334;28;20048;-57
2022/05/05 07:02:04;;;;;;;29.95;15.55;;;18.90;98.70;;;;;;5006029;28;20034;-57
2022/05/05 07:07:16;;;;;;;32.95;15.15;;;19.40;94.70;;;;;;5015641;28;20034;-58
2022/05/05 07:12:29;;;;;;;23.88;13.45;;;19.60;92.80;;;;;;4996258;28;20039;-58
2022/05/05 07:14:56;;;;;;;27.90;13.40;;;19.90;91.60;;;;;;4999972;28;20088;-58
2022/05/05 07:17:23;;;;;;;44.30;15.18;;;20.20;90.00;;;;;;5000863;28;20080;-58
2022/05/05 07:19:49;;;;;;;32.80;13.55;;;20.50;83.00;;;;;;4996096;28;20049;-58
2022/05/05 07:22:24;;;;;;;21.20;11.98;;;20.70;81.80;;;;;;5009457;28;20026;-58
2022/05/05 07:24:51;;;;;;;28.08;11.85;;;21.00;68.80;;;;;;5010762;28;20471;-58
2022/05/05 07:27:17;;;;;;;28.20;10.90;;;21.30;69.30;;;;;;5015430;28;20026;-58
2022/05/05 07:29:44;;;;;;;28.52;11.95;;;21.70;67.20;;;;;;5015292;28;20077;-58
2022/05/05 07:32:10;;;;;;;58.83;14.18;;;21.80;65.50;;;;;;5016269;28;20026;-58
2022/05/05 07:34:38;;;;;;;34.58;11.88;;;22.10;61.30;;;;;;5015973;28;20542;-58
2022/05/05 07:37:04;;;;;;;29.60;10.65;;;22.30;59.50;;;;;;5016027;28;20392;-58
2022/05/05 07:39:30;;;;;;;27.10;10.57;;;22.40;64.80;;;;;;5016144;28;20025;-58
2022/05/05 07:41:56;;;;;;;39.13;11.43;;;22.70;65.10;;;;;;5015963;28;20044;-58
2022/05/05 07:44:22;;;;;;;17.95;8.70;;;22.80;57.40;;;;;;5015852;28;20026;-58
2022/05/05 07:46:48;;;;;;;22.40;8.27;;;23.10;56.20;;;;;;5015984;28;20699;-59
2022/05/05 07:49:14;;;;;;;23.17;8.00;;;23.20;58.30;;;;;;5016080;28;20038;-58
2022/05/05 07:51:40;;;;;;;20.67;8.48;;;23.40;53.00;;;;;;5015949;28;20038;-58
2022/05/05 07:56:51;;;;;;;14.93;7.35;;;23.60;53.80;;;;;;5009595;28;20034;-58
2022/05/05 07:59:19;;;;;;;19.23;8.05;;;23.90;51.70;;;;;;5006499;28;20062;-58
2022/05/05 08:01:45;;;;;;;12.88;7.40;;;23.80;51.10;;;;;;5007959;28;20034;-58
2022/05/05 08:04:11;;;;;;;23.88;8.85;;;23.90;53.10;;;;;;5006089;28;20028;-58
2022/05/05 08:06:37;;;;;;;18.35;7.30;;;23.80;50.30;;;;;;5009626;28;20109;-58
2022/05/05 08:09:03;;;;;;;21.42;9.48;;;23.70;50.70;;;;;;5009150;28;20030;-58
2022/05/05 08:11:29;;;;;;;11.80;7.53;;;23.60;51.80;;;;;;5009849;28;20027;-62
2022/05/05 12:09:53;;;;;;;13.40;6.43;;;21.80;49.20;;;;;;5035487;28;20647;-57
2022/05/05 12:12:29;;;;;;;11.80;5.72;;;21.50;50.30;;;;;;5015072;28;20030;-57
2022/05/05 12:15:01;;;;;;;10.95;5.45;;;21.30;50.80;;;;;;5012933;28;20038;-57
2022/05/05 12:17:57;;;;;;;12.77;5.97;;;21.10;50.90;;;;;;5004161;28;20022;-57
2022/05/05 12:20:24;;;;;;;12.68;6.55;;;21.10;51.20;;;;;;5011800;28;20033;-57
2022/05/05 12:22:56;;;;;;;7.20;4.88;;;21.10;52.40;;;;;;5012792;28;20032;-57
2022/05/05 12:25:24;;;;;;;10.95;5.95;;;21.10;52.90;;;;;;5014681;28;20025;-57
2022/05/05 12:27:57;;;;;;;9.40;4.78;;;21.10;54.00;;;;;;5015020;28;20030;-57
2022/05/05 12:30:34;;;;;;;13.57;6.00;;;21.10;52.80;;;;;;5014790;28;20026;-57
2022/05/05 12:33:02;;;;;;;9.30;5.22;;;21.20;53.80;;;;;;5009133;28;20045;-55
2022/05/05 12:35:38;;;;;;;7.70;4.60;;;21.20;52.40;;;;;;4999444;28;20038;-55
2022/05/05 12:38:13;;;;;;;8.65;4.40;;;21.30;49.40;;;;;;4995416;28;20030;-56
2022/05/05 12:40:44;;;;;;;16.02;6.53;;;21.40;48.00;;;;;;4995778;28;20034;-56
2022/05/05 12:43:17;;;;;;;14.10;6.63;;;21.30;48.80;;;;;;4997739;28;20049;-57
2022/05/05 12:45:43;;;;;;;12.57;5.80;;;21.50;48.80;;;;;;5004117;28;20034;-55
2022/05/05 12:48:10;;;;;;;13.23;6.43;;;21.60;51.50;;;;;;4995736;28;20038;-55
2022/05/05 12:50:46;;;;;;;12.05;6.28;;;21.60;54.50;;;;;;5002378;28;20026;-56
2022/05/05 13:01:34;;;;;;;21.77;8.65;;;22.00;56.50;;;;;;5001177;28;20030;-56
2022/05/05 13:04:05;;;;;;;35.92;10.75;;;22.20;53.10;;;;;;5016987;28;20160;-56
2022/05/05 13:06:35;;;;;;;20.75;8.75;;;22.40;54.40;;;;;;5006718;28;20036;-56
2022/05/05 13:09:05;;;;;;;13.52;7.63;;;22.50;50.30;;;;;;5002228;28;20030;-56
2022/05/05 13:11:31;;;;;;;13.77;7.38;;;22.40;48.80;;;;;;5011251;28;20052;-57
2022/05/05 13:13:57;;;;;;;12.82;6.75;;;22.70;49.40;;;;;;5005287;28;20030;-58
2022/05/05 13:16:24;;;;;;;15.05;6.53;;;22.90;49.20;;;;;;5010221;28;20034;-57
2022/05/05 13:18:50;;;;;;;12.82;6.32;;;23.00;48.00;;;;;;5003381;28;20030;-57
2022/05/05 13:21:16;;;;;;;21.65;6.97;;;23.20;49.00;;;;;;5005731;28;20662;-57
2022/05/05 13:23:42;;;;;;;9.15;5.95;;;23.20;51.20;;;;;;5012618;28;20124;-57
2022/05/05 13:26:08;;;;;;;10.60;5.72;;;23.40;53.20;;;;;;5017734;28;20061;-57
2022/05/05 13:28:34;;;;;;;14.82;6.10;;;23.40;51.10;;;;;;5017941;28;20037;-57
2022/05/05 13:31:00;;;;;;;11.52;6.50;;;23.50;50.70;;;;;;5017870;28;20072;-57
2022/05/05 13:33:27;;;;;;;17.35;6.40;;;23.60;49.80;;;;;;5017665;28;20088;-57
2022/05/05 13:35:52;;;;;;;13.23;6.00;;;23.70;48.30;;;;;;5017769;28;20033;-57
2022/05/05 13:38:19;;;;;;;12.90;6.07;;;23.90;50.10;;;;;;5017577;28;20038;-57
2022/05/05 13:40:45;;;;;;;31.90;8.43;;;24.00;47.70;;;;;;5017831;28;20048;-57
2022/05/05 13:43:11;;;;;;;8.73;5.50;;;24.10;49.40;;;;;;5017494;28;20022;-57
2022/05/05 13:45:37;;;;;;;11.82;5.32;;;24.10;47.30;;;;;;5017780;28;20502;-57
2022/05/05 13:48:04;;;;;;;17.02;6.20;;;24.20;48.60;;;;;;5016211;28;20069;-57
2022/05/05 13:50:30;;;;;;;21.38;7.90;;;24.30;48.40;;;;;;5017540;28;20032;-58
2022/05/05 13:52:57;;;;;;;23.33;8.38;;;24.40;45.40;;;;;;5017507;28;20036;-57
2022/05/05 13:55:23;;;;;;;22.20;7.07;;;24.50;46.50;;;;;;5017470;28;20130;-57
2022/05/05 13:57:49;;;;;;;9.65;5.30;;;24.40;46.50;;;;;;5017437;28;20471;-57
2022/05/05 14:00:15;;;;;;;15.10;5.72;;;24.50;48.30;;;;;;5017528;28;20049;-57
2022/05/05 14:02:42;;;;;;;10.60;5.30;;;24.50;44.20;;;;;;5017349;28;20022;-57
2022/05/05 14:05:08;;;;;;;12.98;6.97;;;24.50;46.30;;;;;;5017291;28;20033;-57
2022/05/05 14:13:04;;;;;;;16.08;6.53;;;24.30;43.30;;;;;;5017035;28;20337;-57
2022/05/05 14:15:34;;;;;;;11.90;5.65;;;24.40;41.70;;;;;;5024315;28;20035;-57
2022/05/05 14:18:00;;;;;;;13.67;6.13;;;24.40;44.40;;;;;;5036515;28;20033;-57
2022/05/05 14:20:28;;;;;;;9.40;5.25;;;24.40;44.30;;;;;;5036919;28;20104;-57
2022/05/05 14:22:53;;;;;;;22.38;8.05;;;24.30;42.60;;;;;;5036889;28;20052;-57
2022/05/05 14:25:20;;;;;;;18.05;7.18;;;24.10;42.10;;;;;;5036712;28;20033;-57
2022/05/05 14:27:46;;;;;;;16.83;8.88;;;24.10;42.50;;;;;;5036685;28;20498;-57
2022/05/05 14:30:12;;;;;;;13.95;5.95;;;24.00;42.40;;;;;;5035768;28;20026;-57
2022/05/05 14:32:39;;;;;;;15.32;6.15;;;24.00;45.60;;;;;;5036328;28;20085;-57
2022/05/05 14:35:05;;;;;;;15.32;6.07;;;24.00;44.70;;;;;;5036554;28;20057;-57
2022/05/05 14:37:31;;;;;;;11.02;6.18;;;24.00;44.10;;;;;;5036517;28;20051;-57
2022/05/05 14:39:57;;;;;;;11.35;5.90;;;23.90;42.00;;;;;;5036361;28;20041;-57
2022/05/05 14:42:24;;;;;;;13.88;6.20;;;23.80;43.10;;;;;;5036599;28;20365;-57
2022/05/05 14:44:50;;;;;;;13.13;6.07;;;23.80;44.50;;;;;;5036029;28;20064;-57
2022/05/05 14:47:16;;;;;;;12.18;5.32;;;23.80;44.30;;;;;;5036090;28;20383;-57
2022/05/05 14:49:44;;;;;;;22.50;8.25;;;23.80;42.80;;;;;;5036399;28;20100;-57
2022/05/05 14:52:11;;;;;;;9.75;5.10;;;23.80;44.70;;;;;;5036223;28;20394;-57
2022/05/05 14:54:38;;;;;;;10.52;5.53;;;23.70;44.50;;;;;;5035972;28;20201;-57
2022/05/05 14:57:05;;;;;;;11.90;6.43;;;23.60;44.60;;;;;;5036150;28;20502;-57
2022/05/05 14:59:30;;;;;;;10.82;5.88;;;23.50;45.40;;;;;;5036001;28;20087;-57
2022/05/05 15:01:57;;;;;;;11.20;6.45;;;23.50;45.00;;;;;;5035999;28;20060;-57
2022/05/05 15:04:23;;;;;;;14.55;6.03;;;23.40;45.30;;;;;;5035877;28;20036;-57
2022/05/05 15:06:49;;;;;;;7.90;5.00;;;23.50;46.40;;;;;;5035822;28;20026;-57
2022/05/05 15:09:15;;;;;;;12.48;6.53;;;23.50;45.70;;;;;;5016349;28;20435;-57
2022/05/05 15:11:41;;;;;;;13.60;5.75;;;23.40;45.70;;;;;;5016017;28;20125;-57
2022/05/05 15:14:08;;;;;;;12.77;7.05;;;23.40;47.40;;;;;;5015841;28;20041;-57
2022/05/05 15:16:34;;;;;;;10.18;5.80;;;23.30;47.30;;;;;;5032164;28;20035;-57
2022/05/05 15:19:00;;;;;;;19.05;6.50;;;23.20;48.00;;;;;;5035666;28;20068;-57
2022/05/05 15:21:26;;;;;;;11.23;6.00;;;23.30;47.30;;;;;;5035680;28;20083;-57
2022/05/05 15:23:54;;;;;;;19.88;8.50;;;23.00;49.40;;;;;;5035612;28;20308;-57
2022/05/05 15:26:23;;;;;;;18.30;8.02;;;22.90;52.40;;;;;;5035604;28;20021;-57
2022/05/05 15:28:50;;;;;;;21.73;11.63;;;22.90;55.70;;;;;;5035410;28;20136;-57
2022/05/05 15:31:17;;;;;;;26.65;11.85;;;22.60;56.40;;;;;;5035453;28;20258;-57
2022/05/05 15:33:44;;;;;;;28.67;12.55;;;22.60;58.80;;;;;;5035408;28;20378;-57
2022/05/05 15:36:14;;;;;;;24.65;9.93;;;22.60;62.10;;;;;;5035554;28;20025;-57
2022/05/05 15:38:42;;;;;;;15.05;9.25;;;22.60;61.20;;;;;;5035255;28;20025;-57
2022/05/05 15:41:09;;;;;;;14.73;7.80;;;22.50;63.10;;;;;;5035125;28;20472;-57
2022/05/05 15:43:35;;;;;;;22.17;8.68;;;22.50;63.30;;;;;;5034958;28;20025;-57
2022/05/05 15:46:01;;;;;;;18.00;8.65;;;22.40;65.30;;;;;;5035299;28;20026;-57
2022/05/05 15:48:28;;;;;;;14.38;7.60;;;22.40;66.60;;;;;;5035172;28;20426;-57
2022/05/05 15:50:54;;;;;;;14.90;8.32;;;22.40;69.10;;;;;;5035000;28;20029;-57
2022/05/05 15:53:20;;;;;;;14.07;7.50;;;22.30;72.80;;;;;;5034981;28;20045;-57
2022/05/05 15:55:48;;;;;;;14.90;8.55;;;22.20;72.80;;;;;;5034752;28;20029;-57
2022/05/05 15:58:14;;;;;;;17.25;8.68;;;22.20;73.10;;;;;;5034883;28;20159;-57
2022/05/05 16:00:40;;;;;;;16.42;8.82;;;22.10;79.70;;;;;;5034758;28;20618;-57
2022/05/05 16:03:08;;;;;;;16.95;8.70;;;22.10;89.50;;;;;;5034535;28;20025;-57
2022/05/05 16:05:37;;;;;;;20.83;8.65;;;22.00;93.10;;;;;;5034766;28;20545;-57
2022/05/05 16:08:03;;;;;;;18.70;9.20;;;21.80;93.00;;;;;;5025171;28;20052;-57
2022/05/05 16:10:30;;;;;;;23.67;13.93;;;21.80;91.80;;;;;;5014725;28;20042;-57
2022/05/05 16:12:58;;;;;;;20.65;10.27;;;21.80;90.50;;;;;;5014737;28;20022;-57
2022/05/05 16:15:24;;;;;;;31.23;13.57;;;21.70;86.70;;;;;;5021470;28;20031;-57
2022/05/05 16:17:50;;;;;;;17.45;11.23;;;21.70;90.70;;;;;;5034519;28;20033;-57
2022/05/05 16:20:18;;;;;;;19.20;10.27;;;21.70;90.60;;;;;;5034657;28;20028;-57
2022/05/05 16:22:45;;;;;;;18.30;10.93;;;21.60;93.50;;;;;;5034633;28;20040;-57
2022/05/05 16:30:42;;;;;;;22.67;13.82;;;21.40;97.70;;;;;;5034471;28;20033;-57
2022/05/05 16:33:09;;;;;;;21.10;11.15;;;21.50;96.70;;;;;;5034469;28;20353;-57
2022/05/05 16:35:36;;;;;;;18.40;10.73;;;21.40;93.90;;;;;;5034578;28;20067;-57
2022/05/05 16:38:05;;;;;;;16.77;11.45;;;21.40;97.30;;;;;;5034578;28;20520;-57
2022/05/05 16:40:33;;;;;;;23.38;12.90;;;21.40;98.30;;;;;;5034344;28;20037;-57
2022/05/05 16:42:59;;;;;;;21.73;13.88;;;21.40;97.50;;;;;;5034303;28;20515;-57
2022/05/05 16:45:26;;;;;;;109.95;16.63;;;21.30;97.90;;;;;;5034617;28;20058;-57
2022/05/05 16:47:52;;;;;;;22.33;13.27;;;21.20;97.60;;;;;;5034163;28;20445;-57
2022/05/05 16:50:22;;;;;;;30.25;15.30;;;21.10;97.80;;;;;;5034266;28;20497;-57
2022/05/05 16:52:50;;;;;;;31.23;20.30;;;21.00;98.20;;;;;;5034358;28;20068;-57
2022/05/05 16:55:19;;;;;;;48.40;21.77;;;20.90;99.30;;;;;;5037754;28;20026;-57
2022/05/05 16:57:51;;;;;;;35.17;15.68;;;20.70;99.10;;;;;;5038429;28;20133;-57
2022/05/05 17:00:23;;;;;;;36.75;17.75;;;20.60;99.20;;;;;;5038306;28;20040;-57
2022/05/05 17:02:49;;;;;;;31.90;17.63;;;20.50;99.90;;;;;;5038361;28;20210;-57
2022/05/05 17:05:17;;;;;;;28.83;15.25;;;20.40;99.90;;;;;;5038034;28;20341;-57